Captain Koulis — SV5456 — position and weather

sailwx.info

Track history (hours):
 
Tides and Currents Weather Stations Pressure Air Temp Water Temp Dewpoint Dewpoint Depression Visibility Wind Speed Wind Dir Waves Ship Positions

Captain Koulis

Last reported at 2015-Jan-23 12:33 UTC. Time now 2015-Jan-25 10:18 UTC.
Position N 36°25' E 025°24'.

Length 21 m.

Type: Passenger vessel. MMSI: 239173800.

Date/timePositionNaut miles runAvg speedWind from/ knotsBaromVisibWave heightAir tempDewpointWater temp
2015-Jan-23 12:33N 36°25' E 025°24'2 2.3
2015-Jan-23 11:33N 36°27' E 025°22'2 2.3
2015-Jan-23 10:33N 36°25' E 025°24'0 0.0
2015-Jan-23 09:31N 36°25' E 025°24'0 0.0
2015-Jan-23 08:32N 36°25' E 025°24'0 0.0
2015-Jan-23 07:33N 36°25' E 025°24'0 0.0
2015-Jan-23 06:33N 36°25' E 025°24'0 0.0
2015-Jan-23 05:32N 36°25' E 025°24'0 0.0
2015-Jan-22 10:31N 36°25' E 025°24'3 3.0
2015-Jan-22 09:33N 36°27' E 025°22'3 2.8
2015-Jan-22 08:33N 36°25' E 025°24'0 0.0
2015-Jan-22 07:33N 36°25' E 025°24'2 1.9
2015-Jan-22 06:33N 36°26' E 025°22'2 1.7
2015-Jan-22 05:33N 36°25' E 025°24'2 0.1
2015-Jan-21 12:33N 36°24' E 025°25'2 1.7
2015-Jan-21 11:33N 36°25' E 025°24'2 2.1
2015-Jan-21 10:25N 36°23' E 025°26'0 0.0
2015-Jan-21 09:31N 36°23' E 025°26'0 0.0
2015-Jan-21 08:32N 36°23' E 025°26'0 0.0
2015-Jan-21 07:33N 36°23' E 025°26'2 2.3
2015-Jan-21 06:33N 36°25' E 025°24'1 0.6
2015-Jan-21 05:33N 36°25' E 025°25'0 0.0
2015-Jan-20 12:33N 36°25' E 025°24'4 3.3
2015-Jan-20 11:27N 36°27' E 025°21'4 0.9
2015-Jan-20 07:33N 36°25' E 025°24'1 1.2
2015-Jan-20 06:33N 36°26' E 025°23'1 0.9
2015-Jan-20 05:32N 36°25' E 025°24'3 0.2
2015-Jan-19 12:12N 36°27' E 025°21'2 2.5
2015-Jan-19 11:33N 36°26' E 025°22'2 2.2
2015-Jan-19 10:33N 36°25' E 025°24'0 0.0
2015-Jan-19 09:33N 36°25' E 025°24'0 0.0
2015-Jan-19 08:32N 36°25' E 025°24'0 0.0
2015-Jan-19 07:33N 36°25' E 025°24'0 0.2
2015-Jan-19 06:33N 36°25' E 025°24'1 0.7
2015-Jan-19 05:33N 36°25' E 025°24'3 0.2
2015-Jan-18 12:12N 36°27' E 025°21'1 1.5
2015-Jan-18 11:33N 36°28' E 025°20'1614.5
2015-Jan-18 10:29N 36°41' E 025°09'10 8.4
2015-Jan-18 09:18N 36°37' E 024°57'0 0.0
2015-Jan-18 08:31N 36°37' E 024°57'0 0.0
2015-Jan-18 07:28N 36°37' E 024°57'1819.5
2015-Jan-18 06:31N 36°29' E 025°18'7 6.9
2015-Jan-18 05:33N 36°25' E 025°24'0 0.0
2015-Jan-17 09:32N 36°25' E 025°24'2 2.1
2015-Jan-17 08:34N 36°23' E 025°26'3 2.6
2015-Jan-17 07:33N 36°25' E 025°24'3 2.4
2015-Jan-17 06:17N 36°27' E 025°21'4 4.9
2015-Jan-17 05:33N 36°25' E 025°24'1 0.1
2015-Jan-16 12:33N 36°25' E 025°23'3 2.7
2015-Jan-16 11:33N 36°23' E 025°24'1313.0
2015-Jan-16 10:33N 36°19' E 025°40'6 5.5
2015-Jan-16 09:33N 36°21' E 025°46'0 0.0
2015-Jan-16 08:33N 36°21' E 025°46'1515.0
2015-Jan-16 07:33N 36°20' E 025°27'4 4.1
2015-Jan-16 06:33N 36°23' E 025°26'2 1.8
2015-Jan-16 05:34N 36°25' E 025°24'0 0.0
2015-Jan-15 14:23N 36°25' E 025°24'3 4.0
2015-Jan-15 13:33N 36°28' E 025°22'17 4.2
2015-Jan-15 09:33N 36°38' E 025°06'5 2.2
2015-Jan-15 07:08N 36°33' E 025°07'1119.5
2015-Jan-15 06:33N 36°28' E 025°20'5 0.3
2015-Jan-14 12:30N 36°25' E 025°24'3 2.8
2015-Jan-14 11:33N 36°27' E 025°22'1 0.1
2015-Jan-14 06:33N 36°26' E 025°23'  
Track history (hours):
 
Tides and Currents Weather Stations Pressure Air Temp Water Temp Dewpoint Dewpoint Depression Visibility Wind Speed Wind Dir Waves Ship Positions

Captain Koulis

Last reported at 2015-Jan-23 12:33 UTC. Time now 2015-Jan-25 10:18 UTC.
Position N 36°25' E 025°24'.

Length 21 m.

Type: Passenger vessel. MMSI: 239173800.

Date/timePositionNaut miles runAvg speedWind from/ knotsBaromVisibWave heightAir tempDewpointWater temp
2015-Jan-23 12:33N 36°25' E 025°24'2 2.3
2015-Jan-23 11:33N 36°27' E 025°22'2 2.3
2015-Jan-23 10:33N 36°25' E 025°24'0 0.0
2015-Jan-23 09:31N 36°25' E 025°24'0 0.0
2015-Jan-23 08:32N 36°25' E 025°24'0 0.0
2015-Jan-23 07:33N 36°25' E 025°24'0 0.0
2015-Jan-23 06:33N 36°25' E 025°24'0 0.0
2015-Jan-23 05:32N 36°25' E 025°24'0 0.0
2015-Jan-22 10:31N 36°25' E 025°24'3 3.0
2015-Jan-22 09:33N 36°27' E 025°22'3 2.8
2015-Jan-22 08:33N 36°25' E 025°24'0 0.0
2015-Jan-22 07:33N 36°25' E 025°24'2 1.9
2015-Jan-22 06:33N 36°26' E 025°22'2 1.7
2015-Jan-22 05:33N 36°25' E 025°24'2 0.1
2015-Jan-21 12:33N 36°24' E 025°25'2 1.7
2015-Jan-21 11:33N 36°25' E 025°24'2 2.1
2015-Jan-21 10:25N 36°23' E 025°26'0 0.0
2015-Jan-21 09:31N 36°23' E 025°26'0 0.0
2015-Jan-21 08:32N 36°23' E 025°26'0 0.0
2015-Jan-21 07:33N 36°23' E 025°26'2 2.3
2015-Jan-21 06:33N 36°25' E 025°24'1 0.6
2015-Jan-21 05:33N 36°25' E 025°25'0 0.0
2015-Jan-20 12:33N 36°25' E 025°24'4 3.3
2015-Jan-20 11:27N 36°27' E 025°21'4 0.9
2015-Jan-20 07:33N 36°25' E 025°24'1 1.2
2015-Jan-20 06:33N 36°26' E 025°23'1 0.9
2015-Jan-20 05:32N 36°25' E 025°24'3 0.2
2015-Jan-19 12:12N 36°27' E 025°21'2 2.5
2015-Jan-19 11:33N 36°26' E 025°22'2 2.2
2015-Jan-19 10:33N 36°25' E 025°24'0 0.0
2015-Jan-19 09:33N 36°25' E 025°24'0 0.0
2015-Jan-19 08:32N 36°25' E 025°24'0 0.0
2015-Jan-19 07:33N 36°25' E 025°24'0 0.2
2015-Jan-19 06:33N 36°25' E 025°24'1 0.7
2015-Jan-19 05:33N 36°25' E 025°24'3 0.2
2015-Jan-18 12:12N 36°27' E 025°21'1 1.5
2015-Jan-18 11:33N 36°28' E 025°20'1614.5
2015-Jan-18 10:29N 36°41' E 025°09'10 8.4
2015-Jan-18 09:18N 36°37' E 024°57'0 0.0
2015-Jan-18 08:31N 36°37' E 024°57'0 0.0
2015-Jan-18 07:28N 36°37' E 024°57'1819.5
2015-Jan-18 06:31N 36°29' E 025°18'7 6.9
2015-Jan-18 05:33N 36°25' E 025°24'0 0.0
2015-Jan-17 09:32N 36°25' E 025°24'2 2.1
2015-Jan-17 08:34N 36°23' E 025°26'3 2.6
2015-Jan-17 07:33N 36°25' E 025°24'3 2.4
2015-Jan-17 06:17N 36°27' E 025°21'4 4.9
2015-Jan-17 05:33N 36°25' E 025°24'1 0.1
2015-Jan-16 12:33N 36°25' E 025°23'3 2.7
2015-Jan-16 11:33N 36°23' E 025°24'1313.0
2015-Jan-16 10:33N 36°19' E 025°40'6 5.5
2015-Jan-16 09:33N 36°21' E 025°46'0 0.0
2015-Jan-16 08:33N 36°21' E 025°46'1515.0
2015-Jan-16 07:33N 36°20' E 025°27'4 4.1
2015-Jan-16 06:33N 36°23' E 025°26'2 1.8
2015-Jan-16 05:34N 36°25' E 025°24'0 0.0
2015-Jan-15 14:23N 36°25' E 025°24'3 4.0
2015-Jan-15 13:33N 36°28' E 025°22'17 4.2
2015-Jan-15 09:33N 36°38' E 025°06'5 2.2
2015-Jan-15 07:08N 36°33' E 025°07'1119.5
2015-Jan-15 06:33N 36°28' E 025°20'5 0.3
2015-Jan-14 12:30N 36°25' E 025°24'3 2.8
2015-Jan-14 11:33N 36°27' E 025°22'1 0.1
2015-Jan-14 06:33N 36°26' E 025°23'  

Dump ship's entire track history